ΕΜΥ, Εθνική Μετεωρολογική Υπηρεσία - Δελτία Καιρού, Προγνώσεις

ΑΕΡΟΝΑΥΤΙΛΙΑ

GREEK AIRPORTS CODES

TAF LGAV 152300Z 1600/1624 VRB05KT 9999 FEW020 PROB30 1601/1605 5000 BR SCT008 BECMG 1606/1608 04010KT BECMG 1615/1617 VRB05KT=

EUROPEAN AIRPORTS CODES

LFPO 152330Z 17005KT CAVOK 11/09 Q1012 NOSIG=